Time,TemperatureF,DewpointF,PressureIn,WindDirection,WindDirectionDegrees,WindSpeedMPH,WindSpeedGustMPH,Humidity,HourlyPrecipIn,Conditions,Clouds,dailyrainin,SolarRadiationWatts/m^2,SoftwareType,DateUTC
2013-01-10 00:12:00,23.0,-1.0,-100.00,South,189,6.0,8.0,34,0.00,,,0.00,0.000000,,2013-01-10 07:12:00,
2013-01-10 00:22:00,23.0,-1.0,-100.00,South,189,6.0,8.0,34,0.00,,,0.00,0.000000,,2013-01-10 07:22:00,
2013-01-10 00:32:00,23.0,-1.0,-100.00,South,189,6.0,8.0,34,0.00,,,0.00,0.000000,,2013-01-10 07:32:00,
2013-01-10 00:42:00,23.0,-1.0,-100.00,South,189,6.0,8.0,34,0.00,,,0.00,0.000000,,2013-01-10 07:42:00,
2013-01-10 00:52:00,23.0,-1.0,-100.00,South,189,6.0,8.0,34,0.00,,,0.00,0.000000,,2013-01-10 07:52:00,
2013-01-10 01:12:00,21.0,1.0,-100.00,South,177,7.0,10.0,41,0.00,,,0.00,0.000000,,2013-01-10 08:12:00,
2013-01-10 01:22:00,21.0,1.0,-100.00,South,177,7.0,10.0,41,0.00,,,0.00,0.000000,,2013-01-10 08:22:00,
2013-01-10 01:32:00,21.0,1.0,-100.00,South,177,7.0,10.0,41,0.00,,,0.00,0.000000,,2013-01-10 08:32:00,
2013-01-10 01:42:00,21.0,1.0,-100.00,South,177,7.0,10.0,41,0.00,,,0.00,0.000000,,2013-01-10 08:42:00,
2013-01-10 01:52:00,21.0,1.0,-100.00,South,177,7.0,10.0,41,0.00,,,0.00,0.000000,,2013-01-10 08:52:00,
2013-01-10 02:12:00,21.0,1.0,-100.00,South,170,5.0,11.0,40,0.00,,,0.00,0.000000,,2013-01-10 09:12:00,
2013-01-10 02:22:00,21.0,1.0,-100.00,South,170,5.0,11.0,40,0.00,,,0.00,0.000000,,2013-01-10 09:22:00,
2013-01-10 02:32:00,21.0,1.0,-100.00,South,170,5.0,11.0,40,0.00,,,0.00,0.000000,,2013-01-10 09:32:00,
2013-01-10 02:42:00,21.0,1.0,-100.00,South,170,5.0,11.0,40,0.00,,,0.00,0.000000,,2013-01-10 09:42:00,
2013-01-10 02:52:00,21.0,1.0,-100.00,South,170,5.0,11.0,40,0.00,,,0.00,0.000000,,2013-01-10 09:52:00,
2013-01-10 03:22:00,21.0,1.0,-100.00,SW,227,0.0,6.0,40,0.00,,,0.00,0.000000,,2013-01-10 10:22:00,
2013-01-10 03:32:00,21.0,1.0,-100.00,SW,227,0.0,6.0,40,0.00,,,0.00,0.000000,,2013-01-10 10:32:00,
2013-01-10 03:42:00,21.0,1.0,-100.00,SW,227,0.0,6.0,40,0.00,,,0.00,0.000000,,2013-01-10 10:42:00,
2013-01-10 03:52:00,21.0,1.0,-100.00,SW,227,0.0,6.0,40,0.00,,,0.00,0.000000,,2013-01-10 10:52:00,
2013-01-10 04:12:00,24.0,-1.0,-100.00,SE,144,5.0,8.0,33,0.00,,,0.00,0.000000,,2013-01-10 11:12:00,
2013-01-10 04:22:00,24.0,-1.0,-100.00,SE,144,5.0,8.0,33,0.00,,,0.00,0.000000,,2013-01-10 11:22:00,
2013-01-10 04:32:00,24.0,-1.0,-100.00,SE,144,5.0,8.0,33,0.00,,,0.00,0.000000,,2013-01-10 11:32:00,
2013-01-10 04:42:00,24.0,-1.0,-100.00,SE,144,5.0,8.0,33,0.00,,,0.00,0.000000,,2013-01-10 11:42:00,
2013-01-10 04:52:00,24.0,-1.0,-100.00,SE,144,5.0,8.0,33,0.00,,,0.00,0.000000,,2013-01-10 11:52:00,
2013-01-10 05:12:00,23.0,-1.0,-100.00,South,170,6.0,10.0,35,0.00,,,0.00,0.000000,,2013-01-10 12:12:00,
2013-01-10 05:22:00,23.0,-1.0,-100.00,South,170,6.0,10.0,35,0.00,,,0.00,0.000000,,2013-01-10 12:22:00,
2013-01-10 05:33:00,23.0,-1.0,-100.00,South,170,6.0,10.0,35,0.00,,,0.00,0.000000,,2013-01-10 12:33:00,
2013-01-10 05:42:00,23.0,-1.0,-100.00,South,170,6.0,10.0,35,0.00,,,0.00,0.000000,,2013-01-10 12:42:00,
2013-01-10 05:52:00,23.0,-1.0,-100.00,South,170,6.0,10.0,35,0.00,,,0.00,0.000000,,2013-01-10 12:52:00,
2013-01-10 07:22:00,20.0,-3.0,-100.00,South,183,5.0,8.0,36,-99.99,,,0.00,0.000000,,2013-01-10 14:22:00,
2013-01-10 07:33:00,20.0,-3.0,-100.00,South,183,5.0,8.0,36,-99.99,,,0.00,0.000000,,2013-01-10 14:33:00,
2013-01-10 07:43:00,20.0,-3.0,-100.00,South,183,5.0,8.0,36,-99.99,,,0.00,0.000000,,2013-01-10 14:43:00,
2013-01-10 07:53:00,20.0,-3.0,-100.00,South,183,5.0,8.0,36,-99.99,,,0.00,0.000000,,2013-01-10 14:53:00,
2013-01-10 08:23:00,21.0,-2.0,-100.00,South,181,6.0,7.0,35,0.00,,,0.00,9.000000,,2013-01-10 15:23:00,
2013-01-10 08:33:00,21.0,-2.0,-100.00,South,181,6.0,7.0,35,0.00,,,0.00,9.000000,,2013-01-10 15:33:00,
2013-01-10 08:43:00,21.0,-2.0,-100.00,South,181,6.0,7.0,35,0.00,,,0.00,9.000000,,2013-01-10 15:43:00,
2013-01-10 08:53:00,21.0,-2.0,-100.00,South,181,6.0,7.0,35,0.00,,,0.00,9.000000,,2013-01-10 15:53:00,
2013-01-10 09:13:00,23.0,-2.0,-100.00,South,185,5.0,7.0,33,0.00,,,0.00,72.000000,,2013-01-10 16:13:00,
2013-01-10 09:23:00,23.0,-2.0,-100.00,South,185,5.0,7.0,33,0.00,,,0.00,72.000000,,2013-01-10 16:23:00,
2013-01-10 09:33:00,23.0,-2.0,-100.00,South,185,5.0,7.0,33,0.00,,,0.00,72.000000,,2013-01-10 16:33:00,
2013-01-10 09:43:00,23.0,-2.0,-100.00,South,185,5.0,7.0,33,0.00,,,0.00,72.000000,,2013-01-10 16:43:00,
2013-01-10 09:52:00,23.0,-2.0,-100.00,South,185,5.0,7.0,33,0.00,,,0.00,72.000000,,2013-01-10 16:52:00,
2013-01-10 10:12:00,26.0,-1.0,-100.00,South,178,6.0,9.0,30,0.00,,,0.00,166.000000,,2013-01-10 17:12:00,
2013-01-10 10:22:00,26.0,-1.0,-100.00,South,178,6.0,9.0,30,0.00,,,0.00,166.000000,,2013-01-10 17:22:00,
2013-01-10 10:33:00,26.0,-1.0,-100.00,South,178,6.0,9.0,30,0.00,,,0.00,166.000000,,2013-01-10 17:33:00,
2013-01-10 10:42:00,26.0,-1.0,-100.00,South,178,6.0,9.0,30,0.00,,,0.00,166.000000,,2013-01-10 17:42:00,
2013-01-10 10:53:00,26.0,-1.0,-100.00,South,178,6.0,9.0,30,0.00,,,0.00,166.000000,,2013-01-10 17:53:00,
2013-01-10 11:12:00,26.0,0.0,-100.00,South,186,6.0,9.0,31,0.00,,,0.00,200.000000,,2013-01-10 18:12:00,
2013-01-10 11:23:00,26.0,0.0,-100.00,South,186,6.0,9.0,31,0.00,,,0.00,200.000000,,2013-01-10 18:23:00,
2013-01-10 11:33:00,26.0,0.0,-100.00,South,186,6.0,9.0,31,0.00,,,0.00,200.000000,,2013-01-10 18:33:00,
2013-01-10 11:43:00,26.0,0.0,-100.00,South,186,6.0,9.0,31,0.00,,,0.00,200.000000,,2013-01-10 18:43:00,
2013-01-10 11:52:00,26.0,0.0,-100.00,South,186,6.0,9.0,31,0.00,,,0.00,200.000000,,2013-01-10 18:52:00,
2013-01-10 12:23:00,27.0,0.0,-100.00,South,184,6.0,9.0,30,0.00,,,0.00,248.000000,,2013-01-10 19:23:00,
2013-01-10 12:33:00,27.0,0.0,-100.00,South,184,6.0,9.0,30,0.00,,,0.00,248.000000,,2013-01-10 19:33:00,
2013-01-10 12:43:00,27.0,0.0,-100.00,South,184,6.0,9.0,30,0.00,,,0.00,248.000000,,2013-01-10 19:43:00,
2013-01-10 12:53:00,27.0,0.0,-100.00,South,184,6.0,9.0,30,0.00,,,0.00,248.000000,,2013-01-10 19:53:00,
2013-01-10 13:13:00,31.0,1.0,-100.00,South,180,6.0,10.0,27,0.00,,,0.00,445.000000,,2013-01-10 20:13:00,
2013-01-10 13:24:00,31.0,1.0,-100.00,South,180,6.0,10.0,27,0.00,,,0.00,445.000000,,2013-01-10 20:24:00,
2013-01-10 13:33:00,31.0,1.0,-100.00,South,180,6.0,10.0,27,0.00,,,0.00,445.000000,,2013-01-10 20:33:00,
2013-01-10 13:43:00,31.0,1.0,-100.00,South,180,6.0,10.0,27,0.00,,,0.00,445.000000,,2013-01-10 20:43:00,
2013-01-10 13:53:00,31.0,1.0,-100.00,South,180,6.0,10.0,27,0.00,,,0.00,445.000000,,2013-01-10 20:53:00,
2013-01-10 14:12:00,29.0,1.0,-100.00,South,186,7.0,16.0,29,0.00,,,0.00,260.000000,,2013-01-10 21:12:00,
2013-01-10 14:23:00,29.0,1.0,-100.00,South,186,7.0,16.0,29,0.00,,,0.00,260.000000,,2013-01-10 21:23:00,
2013-01-10 14:33:00,29.0,1.0,-100.00,South,186,7.0,16.0,29,0.00,,,0.00,260.000000,,2013-01-10 21:33:00,
2013-01-10 14:42:00,29.0,1.0,-100.00,South,186,7.0,16.0,29,0.00,,,0.00,260.000000,,2013-01-10 21:42:00,
2013-01-10 14:53:00,29.0,1.0,-100.00,South,186,7.0,16.0,29,0.00,,,0.00,260.000000,,2013-01-10 21:53:00,
2013-01-10 15:12:00,29.0,4.0,-100.00,South,191,6.0,10.0,33,0.00,,,0.00,226.000000,,2013-01-10 22:12:00,
2013-01-10 15:26:00,29.0,4.0,-100.00,South,191,6.0,10.0,33,0.00,,,0.00,226.000000,,2013-01-10 22:26:00,
2013-01-10 15:33:00,29.0,4.0,-100.00,South,191,6.0,10.0,33,0.00,,,0.00,226.000000,,2013-01-10 22:33:00,
2013-01-10 15:43:00,29.0,4.0,-100.00,South,191,6.0,10.0,33,0.00,,,0.00,226.000000,,2013-01-10 22:43:00,
2013-01-10 16:23:00,28.0,4.0,-100.00,South,191,6.0,10.0,35,0.00,,,0.00,201.000000,,2013-01-10 23:23:00,
2013-01-10 16:33:00,28.0,4.0,-100.00,South,191,6.0,10.0,35,0.00,,,0.00,201.000000,,2013-01-10 23:33:00,
2013-01-10 16:43:00,28.0,4.0,-100.00,South,191,6.0,10.0,35,0.00,,,0.00,201.000000,,2013-01-10 23:43:00,
2013-01-10 16:53:00,28.0,4.0,-100.00,South,191,6.0,10.0,35,0.00,,,0.00,201.000000,,2013-01-10 23:53:00,
2013-01-10 17:13:00,24.0,2.0,-100.00,South,182,6.0,9.0,37,0.00,,,0.00,62.000000,,2013-01-11 00:13:00,
2013-01-10 17:23:00,24.0,2.0,-100.00,South,182,6.0,9.0,37,0.00,,,0.00,62.000000,,2013-01-11 00:23:00,
2013-01-10 17:33:00,24.0,2.0,-100.00,South,182,6.0,9.0,37,0.00,,,0.00,62.000000,,2013-01-11 00:33:00,
2013-01-10 17:42:00,24.0,2.0,-100.00,South,182,6.0,9.0,37,0.00,,,0.00,62.000000,,2013-01-11 00:42:00,
2013-01-10 17:52:00,24.0,2.0,-100.00,South,182,6.0,9.0,37,0.00,,,0.00,62.000000,,2013-01-11 00:52:00,
2013-01-10 18:13:00,24.0,0.0,-100.00,South,176,6.0,9.0,34,0.00,,,0.00,1.000000,,2013-01-11 01:13:00,
2013-01-10 18:23:00,24.0,0.0,-100.00,South,176,6.0,9.0,34,0.00,,,0.00,1.000000,,2013-01-11 01:23:00,
2013-01-10 18:33:00,24.0,0.0,-100.00,South,176,6.0,9.0,34,0.00,,,0.00,1.000000,,2013-01-11 01:33:00,
2013-01-10 18:43:00,24.0,0.0,-100.00,South,176,6.0,9.0,34,0.00,,,0.00,1.000000,,2013-01-11 01:43:00,
2013-01-10 18:52:00,24.0,0.0,-100.00,South,176,6.0,9.0,34,0.00,,,0.00,1.000000,,2013-01-11 01:52:00,
2013-01-10 19:23:00,24.0,-3.0,-100.00,South,175,5.0,9.0,30,0.00,,,0.00,0.000000,,2013-01-11 02:23:00,
2013-01-10 19:33:00,24.0,-3.0,-100.00,South,175,5.0,9.0,30,0.00,,,0.00,0.000000,,2013-01-11 02:33:00,
2013-01-10 19:43:00,24.0,-3.0,-100.00,South,175,5.0,9.0,30,0.00,,,0.00,0.000000,,2013-01-11 02:43:00,
2013-01-10 19:53:00,24.0,-3.0,-100.00,South,175,5.0,9.0,30,0.00,,,0.00,0.000000,,2013-01-11 02:53:00,
2013-01-10 20:23:00,22.0,-1.0,-100.00,South,178,7.0,14.0,35,0.00,,,0.00,0.000000,,2013-01-11 03:23:00,
2013-01-10 20:33:00,22.0,-1.0,-100.00,South,178,7.0,14.0,35,0.00,,,0.00,0.000000,,2013-01-11 03:33:00,
2013-01-10 20:43:00,22.0,-1.0,-100.00,South,178,7.0,14.0,35,0.00,,,0.00,0.000000,,2013-01-11 03:43:00,
2013-01-10 20:53:00,22.0,-1.0,-100.00,South,178,7.0,14.0,35,0.00,,,0.00,0.000000,,2013-01-11 03:53:00,
2013-01-10 21:12:00,20.0,-1.0,-100.00,South,180,5.0,8.0,39,0.00,,,0.00,0.000000,,2013-01-11 04:12:00,
2013-01-10 21:22:00,20.0,-1.0,-100.00,South,180,5.0,8.0,39,0.00,,,0.00,0.000000,,2013-01-11 04:22:00,
2013-01-10 21:33:00,20.0,-1.0,-100.00,South,180,5.0,8.0,39,0.00,,,0.00,0.000000,,2013-01-11 04:33:00,
2013-01-10 21:42:00,20.0,-1.0,-100.00,South,180,5.0,8.0,39,0.00,,,0.00,0.000000,,2013-01-11 04:42:00,
2013-01-10 21:52:00,20.0,-1.0,-100.00,South,180,5.0,8.0,39,0.00,,,0.00,0.000000,,2013-01-11 04:52:00,
2013-01-10 22:13:00,19.0,3.0,-100.00,South,176,8.0,11.0,48,0.00,,,0.00,0.000000,,2013-01-11 05:13:00,
2013-01-10 22:22:00,19.0,3.0,-100.00,South,176,8.0,11.0,48,0.00,,,0.00,0.000000,,2013-01-11 05:22:00,
2013-01-10 22:33:00,19.0,3.0,-100.00,South,176,8.0,11.0,48,0.00,,,0.00,0.000000,,2013-01-11 05:33:00,
2013-01-10 22:42:00,19.0,3.0,-100.00,South,176,8.0,11.0,48,0.00,,,0.00,0.000000,,2013-01-11 05:42:00,
2013-01-10 22:52:00,19.0,3.0,-100.00,South,176,8.0,11.0,48,0.00,,,0.00,0.000000,,2013-01-11 05:52:00,
2013-01-10 23:12:00,16.0,2.0,-100.00,SSE,158,2.0,12.0,54,0.00,,,0.00,0.000000,,2013-01-11 06:12:00,
2013-01-10 23:22:00,16.0,2.0,-100.00,SSE,158,2.0,12.0,54,0.00,,,0.00,0.000000,,2013-01-11 06:22:00,
2013-01-10 23:32:00,16.0,2.0,-100.00,SSE,158,2.0,12.0,54,0.00,,,0.00,0.000000,,2013-01-11 06:32:00,
2013-01-10 23:42:00,16.0,2.0,-100.00,SSE,158,2.0,12.0,54,0.00,,,0.00,0.000000,,2013-01-11 06:42:00,
2013-01-10 23:52:00,16.0,2.0,-100.00,SSE,158,2.0,12.0,54,0.00,,,0.00,0.000000,,2013-01-11 06:52:00,